Time;durP1;ratioP1;P1;durP2;ratioP2;P2;SDS_P1;SDS_P2;PMS_P1;PMS_P2;Temp;Humidity;BMP_temperature;BMP_pressure;BME280_temperature;BME280_humidity;BME280_pressure;Samples;Min_cycle;Max_cycle;Signal;HPM_P1;HPM_P2
2021/09/28 00:00:35;;;;;;;23.75;13.52;;;;;;;;;;4900030;29;20029;-80
2021/09/28 00:03:01;;;;;;;21.17;13.27;;;;;;;;;;4899757;29;20033;-87
2021/09/28 00:05:27;;;;;;;24.88;14.80;;;;;;;;;;4899620;29;20836;-87
2021/09/28 00:07:54;;;;;;;24.40;13.85;;;;;;;;;;4899797;29;20037;-87
2021/09/28 00:10:20;;;;;;;21.48;14.23;;;;;;;;;;4899443;29;20029;-83
2021/09/28 00:12:46;;;;;;;22.98;14.02;;;;;;;;;;4899643;29;20031;-61
2021/09/28 00:15:14;;;;;;;25.02;14.93;;;;;;;;;;4899313;29;20096;-87
2021/09/28 00:17:40;;;;;;;21.05;13.95;;;;;;;;;;4899373;29;20087;-88
2021/09/28 00:20:07;;;;;;;26.90;14.82;;;;;;;;;;4899277;29;20044;-72
2021/09/28 00:22:33;;;;;;;25.40;14.38;;;;;;;;;;4899646;29;20088;-89
2021/09/28 00:24:59;;;;;;;22.90;13.95;;;;;;;;;;4899271;29;20043;-90
2021/09/28 00:27:25;;;;;;;24.45;13.82;;;;;;;;;;4898928;29;20165;-76
2021/09/28 00:29:51;;;;;;;24.23;13.73;;;;;;;;;;4899267;29;20429;-87
2021/09/28 00:32:17;;;;;;;26.08;14.23;;;;;;;;;;4899666;29;20029;-87
2021/09/28 00:34:45;;;;;;;25.58;13.85;;;;;;;;;;4899820;29;20032;-85
2021/09/28 00:37:11;;;;;;;25.02;15.18;;;;;;;;;;4899224;29;20560;-88
2021/09/28 00:39:37;;;;;;;26.27;14.65;;;;;;;;;;4899254;29;20032;-88
2021/09/28 00:42:04;;;;;;;25.15;14.02;;;;;;;;;;4899042;29;20044;-88
2021/09/28 00:44:35;;;;;;;24.17;13.50;;;;;;;;;;4899078;29;20484;-88
2021/09/28 00:47:02;;;;;;;19.13;13.18;;;;;;;;;;4898679;29;20173;-88
2021/09/28 00:49:28;;;;;;;29.42;13.38;;;;;;;;;;4899010;29;20084;-87
2021/09/28 00:51:54;;;;;;;23.90;14.25;;;;;;;;;;4898305;29;20048;-80
2021/09/28 05:27:30;;;;;;;;;;;;;;;;;;5214864;23;20079;-60
2021/09/28 05:29:56;;;;;;;20.95;12.43;;;;;;;;;;4934917;29;19911;-59
2021/09/28 05:32:22;;;;;;;20.20;13.27;;;;;;;;;;4918149;29;20561;-62
2021/09/28 05:34:48;;;;;;;18.88;13.48;;;;;;;;;;4934797;29;20024;-61
2021/09/28 05:37:16;;;;;;;21.08;13.20;;;;;;;;;;4917633;29;20047;-60
2021/09/28 05:39:42;;;;;;;19.25;13.13;;;;;;;;;;4934696;29;20412;-65
2021/09/28 05:42:08;;;;;;;21.42;14.30;;;;;;;;;;4934781;29;20047;-64
2021/09/28 05:44:34;;;;;;;20.90;13.85;;;;;;;;;;4934297;29;20028;-61
2021/09/28 05:47:00;;;;;;;21.67;14.93;;;;;;;;;;4934444;29;20603;-62
2021/09/28 05:49:32;;;;;;;21.83;14.50;;;;;;;;;;4916889;29;20463;-61
2021/09/28 05:51:59;;;;;;;19.67;14.13;;;;;;;;;;4932840;29;20475;-62
2021/09/28 05:54:29;;;;;;;22.15;14.95;;;;;;;;;;4933510;29;20126;-61
2021/09/28 05:56:55;;;;;;;21.80;14.25;;;;;;;;;;4930692;29;20043;-61
2021/09/28 05:59:21;;;;;;;23.30;14.73;;;;;;;;;;4900592;29;20407;-63
2021/09/28 06:01:49;;;;;;;20.25;15.02;;;;;;;;;;4923868;29;20039;-61
2021/09/28 06:04:16;;;;;;;22.77;13.98;;;;;;;;;;4910923;29;20054;-60
2021/09/28 06:06:43;;;;;;;22.63;14.70;;;;;;;;;;4926365;29;20027;-63
2021/09/28 06:09:09;;;;;;;21.75;14.60;;;;;;;;;;4931266;29;20135;-60
2021/09/28 06:11:35;;;;;;;22.38;14.77;;;;;;;;;;4931827;29;20051;-62
2021/09/28 06:14:01;;;;;;;25.95;16.27;;;;;;;;;;4933805;29;20023;-61
2021/09/28 06:16:27;;;;;;;21.88;15.43;;;;;;;;;;4916854;29;20119;-62
2021/09/28 06:18:54;;;;;;;24.65;15.70;;;;;;;;;;4933705;29;20024;-61
2021/09/28 06:21:20;;;;;;;26.85;16.27;;;;;;;;;;4933794;29;20063;-62
2021/09/28 06:23:46;;;;;;;22.25;15.88;;;;;;;;;;4933123;29;20415;-61
2021/09/28 06:26:12;;;;;;;25.88;16.60;;;;;;;;;;4930735;29;20032;-63
2021/09/28 06:28:38;;;;;;;22.65;16.10;;;;;;;;;;4913999;29;20233;-62
2021/09/28 06:31:04;;;;;;;24.13;16.00;;;;;;;;;;4914603;29;20035;-61
2021/09/28 06:33:30;;;;;;;23.15;15.98;;;;;;;;;;4914532;29;20030;-61
2021/09/28 06:35:56;;;;;;;21.13;15.70;;;;;;;;;;4914767;29;20071;-61
2021/09/28 06:38:22;;;;;;;27.85;16.15;;;;;;;;;;4914869;29;20320;-62
2021/09/28 06:40:48;;;;;;;21.15;14.93;;;;;;;;;;4913278;29;20125;-61
2021/09/28 06:43:14;;;;;;;25.05;15.45;;;;;;;;;;4913634;29;20544;-61
2021/09/28 06:45:40;;;;;;;23.30;15.65;;;;;;;;;;4913796;29;20484;-62
2021/09/28 06:48:06;;;;;;;22.83;15.90;;;;;;;;;;4913687;29;20417;-63
2021/09/28 06:50:32;;;;;;;23.27;14.95;;;;;;;;;;4913701;29;20374;-63
2021/09/28 06:52:58;;;;;;;24.58;15.88;;;;;;;;;;4914536;29;20091;-64
2021/09/28 06:55:24;;;;;;;22.75;15.27;;;;;;;;;;4912618;29;20039;-61
2021/09/28 06:57:50;;;;;;;23.08;14.20;;;;;;;;;;4911931;29;20062;-61
2021/09/28 07:00:16;;;;;;;22.67;15.52;;;;;;;;;;4909797;29;20029;-63
2021/09/28 07:02:43;;;;;;;23.20;15.55;;;;;;;;;;4913846;29;20403;-63
2021/09/28 07:05:13;;;;;;;24.10;15.43;;;;;;;;;;4913571;29;20392;-62
2021/09/28 07:07:40;;;;;;;24.70;14.88;;;;;;;;;;4912791;29;20024;-60
2021/09/28 07:10:07;;;;;;;26.33;14.50;;;;;;;;;;4913185;29;20020;-62
2021/09/28 07:12:33;;;;;;;23.92;15.27;;;;;;;;;;4913201;29;20365;-62
2021/09/28 07:14:59;;;;;;;23.13;15.25;;;;;;;;;;4913227;29;20387;-61
2021/09/28 07:17:26;;;;;;;23.73;14.90;;;;;;;;;;4913039;29;20020;-62
2021/09/28 07:19:52;;;;;;;22.75;15.88;;;;;;;;;;4913097;29;20543;-61
2021/09/28 07:22:18;;;;;;;25.25;15.40;;;;;;;;;;4912857;29;20119;-61
2021/09/28 07:24:44;;;;;;;25.02;16.35;;;;;;;;;;4910075;29;20024;-61
2021/09/28 07:27:10;;;;;;;28.95;17.02;;;;;;;;;;4912633;29;20103;-61
2021/09/28 07:29:36;;;;;;;24.15;15.73;;;;;;;;;;4895684;29;20068;-61
2021/09/28 07:32:03;;;;;;;24.05;15.27;;;;;;;;;;4913327;29;20108;-61
2021/09/28 07:34:31;;;;;;;28.30;16.63;;;;;;;;;;4912942;29;20020;-63
2021/09/28 07:36:57;;;;;;;28.25;15.55;;;;;;;;;;4912448;29;20403;-62
2021/09/28 07:39:23;;;;;;;30.92;17.92;;;;;;;;;;4913025;29;20477;-62
2021/09/28 07:41:49;;;;;;;32.80;17.73;;;;;;;;;;4912831;29;20047;-62
2021/09/28 07:44:16;;;;;;;31.65;17.00;;;;;;;;;;4911010;29;20056;-61
2021/09/28 07:46:42;;;;;;;24.85;15.32;;;;;;;;;;4916390;29;20032;-63
2021/09/28 07:49:08;;;;;;;28.20;15.68;;;;;;;;;;4916500;29;20072;-63
2021/09/28 07:51:34;;;;;;;26.17;15.35;;;;;;;;;;4899483;29;20116;-62
2021/09/28 07:54:00;;;;;;;27.58;15.85;;;;;;;;;;4916486;29;20036;-62
2021/09/28 07:56:27;;;;;;;23.02;14.07;;;;;;;;;;4915836;29;20083;-62
2021/09/28 07:58:53;;;;;;;22.80;14.13;;;;;;;;;;4915497;29;20487;-62
2021/09/28 08:01:19;;;;;;;23.65;15.18;;;;;;;;;;4916299;29;20125;-62
2021/09/28 08:03:45;;;;;;;21.02;14.02;;;;;;;;;;4916071;29;20028;-61
2021/09/28 08:06:11;;;;;;;26.00;14.85;;;;;;;;;;4916090;29;20107;-62
2021/09/28 08:08:37;;;;;;;23.50;15.20;;;;;;;;;;4915941;29;20027;-63
2021/09/28 08:11:04;;;;;;;24.85;15.52;;;;;;;;;;4915968;29;20027;-61
2021/09/28 08:13:38;;;;;;;26.88;15.85;;;;;;;;;;4915984;29;20028;-61
2021/09/28 08:16:05;;;;;;;27.08;16.85;;;;;;;;;;4914710;29;20380;-61
2021/09/28 08:18:31;;;;;;;27.50;16.38;;;;;;;;;;4916373;29;20033;-62
2021/09/28 08:20:57;;;;;;;26.63;16.70;;;;;;;;;;4915898;29;20167;-61
2021/09/28 08:23:24;;;;;;;30.40;17.83;;;;;;;;;;4915820;29;20076;-62
2021/09/28 08:31:05;;;;;;;26.05;16.98;;;;;;;;;;4914782;29;20035;-62
2021/09/28 08:33:31;;;;;;;24.60;16.30;;;;;;;;;;4897639;29;20381;-63
2021/09/28 08:35:57;;;;;;;27.58;17.45;;;;;;;;;;4915757;29;20024;-61
2021/09/28 08:38:24;;;;;;;26.25;16.88;;;;;;;;;;4915561;29;20115;-64
2021/09/28 08:40:50;;;;;;;24.85;16.88;;;;;;;;;;4912607;29;20103;-63
2021/09/28 08:43:17;;;;;;;27.33;16.92;;;;;;;;;;4915512;29;20040;-63
2021/09/28 08:45:43;;;;;;;25.60;16.63;;;;;;;;;;4914985;29;20480;-61
2021/09/28 08:48:16;;;;;;;24.67;15.50;;;;;;;;;;4915466;29;20119;-62
2021/09/28 08:50:45;;;;;;;25.42;16.83;;;;;;;;;;4915666;29;20158;-62
2021/09/28 08:53:14;;;;;;;24.58;15.98;;;;;;;;;;4915189;29;20028;-62
2021/09/28 08:55:40;;;;;;;25.55;15.93;;;;;;;;;;4914379;29;20544;-64
2021/09/28 08:58:11;;;;;;;26.27;16.23;;;;;;;;;;4915119;29;20036;-61
2021/09/28 09:00:37;;;;;;;24.88;16.42;;;;;;;;;;4913231;29;20806;-62
2021/09/28 09:03:03;;;;;;;24.20;16.17;;;;;;;;;;4916154;29;20110;-62
2021/09/28 09:05:29;;;;;;;27.83;18.08;;;;;;;;;;4915140;29;20043;-62
2021/09/28 09:08:00;;;;;;;24.42;16.25;;;;;;;;;;4915319;29;20483;-62
2021/09/28 09:10:28;;;;;;;26.48;17.35;;;;;;;;;;4897646;29;20044;-62
2021/09/28 09:12:54;;;;;;;25.48;15.90;;;;;;;;;;4912429;29;20024;-61
2021/09/28 09:15:23;;;;;;;24.88;16.77;;;;;;;;;;4915193;29;20028;-62
2021/09/28 09:17:51;;;;;;;25.27;16.38;;;;;;;;;;4915100;29;20032;-62
2021/09/28 09:20:27;;;;;;;23.80;15.75;;;;;;;;;;4916129;29;20095;-62
2021/09/28 09:22:53;;;;;;;24.10;16.13;;;;;;;;;;4915065;29;20032;-62
2021/09/28 09:25:20;;;;;;;25.25;15.98;;;;;;;;;;4915850;29;20039;-60
2021/09/28 09:27:46;;;;;;;22.73;15.15;;;;;;;;;;4915518;29;20139;-63
2021/09/28 09:30:13;;;;;;;24.88;15.68;;;;;;;;;;4915338;29;20028;-62
2021/09/28 09:32:46;;;;;;;24.17;16.20;;;;;;;;;;4916222;29;20043;-62
2021/09/28 09:35:17;;;;;;;21.27;13.90;;;;;;;;;;4898859;29;20543;-61
2021/09/28 09:37:43;;;;;;;24.20;16.25;;;;;;;;;;4916097;29;20047;-61
2021/09/28 09:40:11;;;;;;;25.13;16.27;;;;;;;;;;4915858;29;20039;-61
2021/09/28 09:42:53;;;;;;;23.10;15.60;;;;;;;;;;4914475;29;20050;-61
2021/09/28 09:45:22;;;;;;;21.33;14.27;;;;;;;;;;4914879;29;20032;-61
2021/09/28 09:47:49;;;;;;;23.90;15.18;;;;;;;;;;4914974;29;20064;-60
2021/09/28 09:50:16;;;;;;;25.50;15.43;;;;;;;;;;4915369;29;20020;-61
2021/09/28 09:53:07;;;;;;;22.17;14.98;;;;;;;;;;4914869;29;20365;-61
2021/09/28 09:55:34;;;;;;;25.02;14.45;;;;;;;;;;4912679;29;20467;-60
2021/09/28 09:58:01;;;;;;;19.67;13.30;;;;;;;;;;4915088;29;20024;-60
2021/09/28 10:00:28;;;;;;;19.95;12.40;;;;;;;;;;4914737;29;20032;-60
2021/09/28 10:02:55;;;;;;;19.63;11.60;;;;;;;;;;4912778;29;20075;-60
2021/09/28 10:05:21;;;;;;;17.98;11.20;;;;;;;;;;4914872;29;20030;-60
2021/09/28 10:07:50;;;;;;;18.23;11.30;;;;;;;;;;4915135;29;20381;-62
2021/09/28 10:10:17;;;;;;;14.88;10.55;;;;;;;;;;4914491;29;20123;-60
2021/09/28 10:12:43;;;;;;;16.38;10.38;;;;;;;;;;4914758;29;20040;-61
2021/09/28 10:15:14;;;;;;;14.48;10.20;;;;;;;;;;4898120;29;20028;-60
2021/09/28 10:17:41;;;;;;;14.00;10.52;;;;;;;;;;4895591;29;20459;-59
2021/09/28 10:20:08;;;;;;;13.02;9.55;;;;;;;;;;4914849;29;20024;-59
2021/09/28 10:22:38;;;;;;;14.25;10.30;;;;;;;;;;4914538;29;20024;-61
2021/09/28 10:25:26;;;;;;;13.80;9.23;;;;;;;;;;4914436;29;20043;-60
2021/09/28 10:27:56;;;;;;;17.02;9.30;;;;;;;;;;4899935;29;20130;-62
2021/09/28 10:30:32;;;;;;;12.57;8.35;;;;;;;;;;4915070;29;20103;-61
2021/09/28 10:32:59;;;;;;;12.63;8.50;;;;;;;;;;4914933;29;20032;-62
2021/09/28 10:35:25;;;;;;;13.02;8.40;;;;;;;;;;4914655;29;20513;-60
2021/09/28 10:37:57;;;;;;;10.05;7.28;;;;;;;;;;4914684;29;20036;-60
2021/09/28 10:40:24;;;;;;;11.68;7.03;;;;;;;;;;4914705;29;20036;-60
2021/09/28 10:42:51;;;;;;;11.07;6.97;;;;;;;;;;4915010;29;20108;-60
2021/09/28 10:45:30;;;;;;;11.25;6.47;;;;;;;;;;4914927;29;20111;-62
2021/09/28 10:48:00;;;;;;;9.23;6.47;;;;;;;;;;4914714;29;20099;-60
2021/09/28 10:50:31;;;;;;;9.48;6.60;;;;;;;;;;4914585;29;20842;-60
2021/09/28 10:52:59;;;;;;;11.32;6.40;;;;;;;;;;4914674;29;20835;-60
2021/09/28 10:55:27;;;;;;;8.23;5.72;;;;;;;;;;4914371;29;20480;-62
2021/09/28 10:58:03;;;;;;;10.68;6.32;;;;;;;;;;4913643;29;20047;-62
2021/09/28 11:00:30;;;;;;;9.35;7.00;;;;;;;;;;4911837;29;20029;-60
2021/09/28 11:02:57;;;;;;;9.57;6.75;;;;;;;;;;4913438;29;20116;-61
2021/09/28 11:05:29;;;;;;;9.82;6.97;;;;;;;;;;4913479;29;20115;-60
2021/09/28 11:07:56;;;;;;;11.23;7.10;;;;;;;;;;4913411;29;20028;-62
2021/09/28 11:10:22;;;;;;;11.02;7.47;;;;;;;;;;4910740;29;20675;-61
2021/09/28 11:12:48;;;;;;;12.23;8.02;;;;;;;;;;4913531;29;20103;-61
2021/09/28 11:15:21;;;;;;;27.95;12.52;;;;;;;;;;4913340;29;20370;-62
2021/09/28 11:17:47;;;;;;;81.00;24.50;;;;;;;;;;4913417;29;20048;-62
2021/09/28 11:20:21;;;;;;;62.72;23.75;;;;;;;;;;4915182;29;20036;-61
2021/09/28 11:23:13;;;;;;;57.30;21.13;;;;;;;;;;4916988;29;20111;-62
2021/09/28 11:25:41;;;;;;;67.63;22.77;;;;;;;;;;4913851;29;20119;-61
2021/09/28 11:28:11;;;;;;;71.38;24.67;;;;;;;;;;4916742;29;20492;-59
2021/09/28 11:30:39;;;;;;;16.42;9.40;;;;;;;;;;4917122;29;20024;-61
2021/09/28 11:33:06;;;;;;;17.95;8.88;;;;;;;;;;4916919;29;20032;-60
2021/09/28 11:35:33;;;;;;;55.45;18.63;;;;;;;;;;4916827;29;20028;-60
2021/09/28 11:38:01;;;;;;;19.90;9.70;;;;;;;;;;4916755;29;20059;-61
2021/09/28 11:40:39;;;;;;;43.17;15.75;;;;;;;;;;4916542;29;20123;-61
2021/09/28 11:43:22;;;;;;;24.52;10.77;;;;;;;;;;4915296;29;20030;-63
2021/09/28 11:45:57;;;;;;;13.23;7.57;;;;;;;;;;4915848;29;20059;-60
2021/09/28 11:48:23;;;;;;;19.15;10.75;;;;;;;;;;4914944;29;20064;-61
2021/09/28 11:50:49;;;;;;;16.95;10.23;;;;;;;;;;4916553;29;20036;-61
2021/09/28 11:53:16;;;;;;;15.52;9.25;;;;;;;;;;4916575;29;20039;-59
2021/09/28 11:55:42;;;;;;;11.30;7.85;;;;;;;;;;4917126;29;20080;-60
2021/09/28 11:58:08;;;;;;;14.88;8.38;;;;;;;;;;4917168;29;20032;-59
2021/09/28 12:00:35;;;;;;;19.23;9.18;;;;;;;;;;4916378;29;20179;-61
2021/09/28 12:03:09;;;;;;;12.68;7.63;;;;;;;;;;4916648;29;20035;-60
2021/09/28 12:08:24;;;;;;;11.15;6.82;;;;;;;;;;4917081;29;20128;-60
2021/09/28 12:10:50;;;;;;;10.70;7.00;;;;;;;;;;4916746;29;20028;-59
2021/09/28 12:13:21;;;;;;;10.00;7.55;;;;;;;;;;4916394;29;20083;-59
2021/09/28 12:16:05;;;;;;;12.07;7.20;;;;;;;;;;4916166;29;20025;-59
2021/09/28 12:18:31;;;;;;;10.05;6.47;;;;;;;;;;4915637;29;20032;-59
2021/09/28 12:21:29;;;;;;;11.30;7.35;;;;;;;;;;4916065;29;20036;-60
2021/09/28 12:24:17;;;;;;;11.63;7.10;;;;;;;;;;4839608;29;20075;-62
2021/09/28 12:26:43;;;;;;;10.05;7.00;;;;;;;;;;4838408;29;20061;-59
2021/09/28 12:29:17;;;;;;;11.77;7.07;;;;;;;;;;4839843;29;20033;-59
2021/09/28 12:31:43;;;;;;;9.80;7.35;;;;;;;;;;4838959;29;20094;-59
2021/09/28 12:34:10;;;;;;;10.27;7.30;;;;;;;;;;4838756;29;20110;-59
2021/09/28 12:36:36;;;;;;;9.90;7.20;;;;;;;;;;4839467;29;20090;-60
2021/09/28 12:39:12;;;;;;;9.88;6.57;;;;;;;;;;4839416;29;20117;-61
2021/09/28 12:41:58;;;;;;;9.15;6.38;;;;;;;;;;4838301;29;20097;-60
2021/09/28 12:44:25;;;;;;;11.27;6.70;;;;;;;;;;4829874;29;20121;-60
2021/09/28 12:46:51;;;;;;;9.13;6.68;;;;;;;;;;4829289;29;20042;-59
2021/09/28 12:49:30;;;;;;;9.02;6.55;;;;;;;;;;4828348;29;20045;-60
2021/09/28 12:51:57;;;;;;;7.93;6.05;;;;;;;;;;4837895;29;20029;-61
2021/09/28 12:54:23;;;;;;;11.00;6.82;;;;;;;;;;4837715;29;20030;-61
2021/09/28 12:56:50;;;;;;;11.77;6.50;;;;;;;;;;4837807;29;20038;-61
2021/09/28 12:59:17;;;;;;;8.98;6.22;;;;;;;;;;4868587;29;20388;-61
2021/09/28 13:01:46;;;;;;;11.07;6.60;;;;;;;;;;4915239;29;20039;-62
2021/09/28 13:04:16;;;;;;;9.30;6.60;;;;;;;;;;4915257;29;20032;-60
2021/09/28 13:06:45;;;;;;;15.45;7.63;;;;;;;;;;4915559;29;20056;-61
2021/09/28 13:09:12;;;;;;;9.48;6.13;;;;;;;;;;4916021;29;20075;-61
2021/09/28 13:11:38;;;;;;;8.68;6.20;;;;;;;;;;4915921;29;20341;-60
2021/09/28 13:14:04;;;;;;;9.40;6.38;;;;;;;;;;4916053;29;20384;-61
2021/09/28 13:16:31;;;;;;;9.38;6.35;;;;;;;;;;4915793;29;20027;-63
2021/09/28 13:18:57;;;;;;;8.18;6.00;;;;;;;;;;4915762;29;20083;-61
2021/09/28 13:21:23;;;;;;;7.85;5.85;;;;;;;;;;4915496;29;20523;-62
2021/09/28 13:23:49;;;;;;;9.23;6.15;;;;;;;;;;4915454;29;20823;-60
2021/09/28 13:26:15;;;;;;;9.35;6.63;;;;;;;;;;4915139;29;20091;-63
2021/09/28 13:28:41;;;;;;;8.70;6.13;;;;;;;;;;4915758;29;20050;-62
2021/09/28 13:31:08;;;;;;;13.70;9.35;;;;;;;;;;4915646;29;20063;-61
2021/09/28 13:33:34;;;;;;;12.95;8.52;;;;;;;;;;4915495;29;20028;-60
2021/09/28 13:36:00;;;;;;;12.43;7.28;;;;;;;;;;4915034;29;20051;-61
2021/09/28 13:38:26;;;;;;;10.27;6.35;;;;;;;;;;4915396;29;20059;-63
2021/09/28 13:40:52;;;;;;;10.45;7.53;;;;;;;;;;4915141;29;20028;-63
2021/09/28 13:43:18;;;;;;;9.20;6.32;;;;;;;;;;4914744;29;20047;-62
2021/09/28 13:45:45;;;;;;;8.98;5.93;;;;;;;;;;4915169;29;20024;-62
2021/09/28 13:48:11;;;;;;;9.23;6.82;;;;;;;;;;4915218;29;20040;-61
2021/09/28 13:50:38;;;;;;;10.95;6.75;;;;;;;;;;4915629;29;20028;-62
2021/09/28 13:53:05;;;;;;;9.63;6.63;;;;;;;;;;4915807;29;20107;-62
2021/09/28 13:55:31;;;;;;;10.52;6.70;;;;;;;;;;4915069;29;20028;-60
2021/09/28 13:57:58;;;;;;;11.55;7.07;;;;;;;;;;4915021;29;20036;-61
2021/09/28 14:00:24;;;;;;;10.07;6.82;;;;;;;;;;4915179;29;20035;-62
2021/09/28 14:02:51;;;;;;;10.23;7.22;;;;;;;;;;4915263;29;20487;-62
2021/09/28 14:05:17;;;;;;;11.50;7.00;;;;;;;;;;4913522;29;20059;-63
2021/09/28 14:07:43;;;;;;;10.63;7.45;;;;;;;;;;4912314;29;20035;-61
2021/09/28 14:10:10;;;;;;;16.33;7.53;;;;;;;;;;4914361;29;20031;-58
2021/09/28 14:12:36;;;;;;;15.23;8.70;;;;;;;;;;4914479;29;20027;-59
2021/09/28 14:15:03;;;;;;;20.42;9.43;;;;;;;;;;4914171;29;20167;-63
2021/09/28 14:17:29;;;;;;;12.35;8.45;;;;;;;;;;4915163;29;20040;-61
2021/09/28 14:19:55;;;;;;;13.48;8.35;;;;;;;;;;4913862;29;20483;-63
2021/09/28 14:22:21;;;;;;;11.13;7.72;;;;;;;;;;4911400;29;20048;-58
2021/09/28 14:24:47;;;;;;;17.73;9.85;;;;;;;;;;4910584;29;20103;-61
2021/09/28 14:27:13;;;;;;;24.33;11.70;;;;;;;;;;4909262;29;20062;-59
2021/09/28 14:29:39;;;;;;;45.45;13.10;;;;;;;;;;4906877;29;20060;-60
2021/09/28 14:32:05;;;;;;;53.08;15.27;;;;;;;;;;4913979;29;20396;-61
2021/09/28 14:34:31;;;;;;;37.75;14.15;;;;;;;;;;4914271;29;20037;-60
2021/09/28 14:36:57;;;;;;;16.85;9.88;;;;;;;;;;4914733;29;20079;-60
2021/09/28 14:39:24;;;;;;;13.15;9.23;;;;;;;;;;4915051;29;20036;-60
2021/09/28 14:41:51;;;;;;;13.85;10.23;;;;;;;;;;4914837;29;20032;-60
2021/09/28 14:44:17;;;;;;;14.73;9.65;;;;;;;;;;4914811;29;20071;-61
2021/09/28 14:46:43;;;;;;;14.07;9.48;;;;;;;;;;4915028;29;20251;-61
2021/09/28 14:49:09;;;;;;;19.05;10.52;;;;;;;;;;4914935;29;20028;-61
2021/09/28 14:51:35;;;;;;;15.05;9.85;;;;;;;;;;4914661;29;20035;-60
2021/09/28 14:54:01;;;;;;;16.27;9.88;;;;;;;;;;4917121;29;20043;-61
2021/09/28 14:56:27;;;;;;;13.13;9.27;;;;;;;;;;4918396;29;20040;-61
2021/09/28 14:58:53;;;;;;;16.00;9.88;;;;;;;;;;4918435;29;20040;-62
2021/09/28 15:01:22;;;;;;;15.30;10.05;;;;;;;;;;4918733;29;20107;-63
2021/09/28 15:03:48;;;;;;;14.80;9.82;;;;;;;;;;4920368;29;20036;-61
2021/09/28 15:06:18;;;;;;;13.93;9.98;;;;;;;;;;4918298;29;20032;-63
2021/09/28 15:08:45;;;;;;;13.73;9.45;;;;;;;;;;4918410;29;20035;-60
2021/09/28 15:11:26;;;;;;;13.35;9.18;;;;;;;;;;4917373;29;20036;-59
2021/09/28 15:13:53;;;;;;;16.98;9.30;;;;;;;;;;4905428;29;20518;-61
2021/09/28 15:16:19;;;;;;;13.50;8.70;;;;;;;;;;4917405;29;20044;-59
2021/09/28 15:18:45;;;;;;;13.73;9.27;;;;;;;;;;4917198;29;20039;-60
2021/09/28 15:21:11;;;;;;;12.55;8.50;;;;;;;;;;4884912;29;20063;-62
2021/09/28 15:23:37;;;;;;;11.52;8.15;;;;;;;;;;4917211;29;20164;-61
2021/09/28 15:26:03;;;;;;;14.48;8.30;;;;;;;;;;4913229;29;20032;-63
2021/09/28 15:28:29;;;;;;;13.18;8.25;;;;;;;;;;4915943;29;20400;-60
2021/09/28 15:30:55;;;;;;;15.05;8.88;;;;;;;;;;4913579;29;20539;-62
2021/09/28 15:33:21;;;;;;;14.38;7.82;;;;;;;;;;4899353;29;20469;-61
2021/09/28 15:35:47;;;;;;;11.57;7.80;;;;;;;;;;4910749;29;20525;-61
2021/09/28 15:38:33;;;;;;;14.70;8.25;;;;;;;;;;4917383;29;20055;-60
2021/09/28 15:40:59;;;;;;;13.27;8.10;;;;;;;;;;4917578;29;20044;-61
2021/09/28 15:43:25;;;;;;;19.10;12.32;;;;;;;;;;4917732;29;20092;-59
2021/09/28 15:45:51;;;;;;;18.10;11.57;;;;;;;;;;4917636;29;20036;-59
2021/09/28 15:48:17;;;;;;;15.27;7.93;;;;;;;;;;4920874;29;20039;-61
2021/09/28 15:50:43;;;;;;;13.23;7.63;;;;;;;;;;4917613;29;20067;-59
2021/09/28 15:53:09;;;;;;;15.77;7.60;;;;;;;;;;4918156;29;20120;-60
2021/09/28 15:55:35;;;;;;;12.48;7.90;;;;;;;;;;4917861;29;20039;-60
2021/09/28 15:58:03;;;;;;;12.00;7.75;;;;;;;;;;4906363;29;20059;-61
2021/09/28 16:00:29;;;;;;;14.50;8.30;;;;;;;;;;4901507;29;20052;-61
2021/09/28 16:02:55;;;;;;;16.88;8.38;;;;;;;;;;4915849;29;20043;-59
2021/09/28 16:05:21;;;;;;;12.95;7.75;;;;;;;;;;4913980;29;20099;-61
2021/09/28 16:07:50;;;;;;;14.60;8.45;;;;;;;;;;4906197;29;20096;-61
2021/09/28 16:10:18;;;;;;;13.95;8.95;;;;;;;;;;4911347;29;20444;-60
2021/09/28 16:12:45;;;;;;;15.77;9.63;;;;;;;;;;4912961;29;20473;-61
2021/09/28 16:15:12;;;;;;;13.15;8.23;;;;;;;;;;4913929;29;20415;-61
2021/09/28 16:17:38;;;;;;;13.15;8.32;;;;;;;;;;4916720;29;20075;-61
2021/09/28 16:20:04;;;;;;;11.38;8.50;;;;;;;;;;4905474;29;20064;-61
2021/09/28 16:22:30;;;;;;;17.52;8.82;;;;;;;;;;4908134;29;20529;-62
2021/09/28 16:24:56;;;;;;;12.77;8.70;;;;;;;;;;4915775;29;20475;-61
2021/09/28 16:27:22;;;;;;;12.65;8.68;;;;;;;;;;4916155;29;20569;-62
2021/09/28 16:29:49;;;;;;;14.68;9.02;;;;;;;;;;4912334;29;20056;-62
2021/09/28 16:32:15;;;;;;;14.45;8.23;;;;;;;;;;4907350;29;20028;-63
2021/09/28 16:34:41;;;;;;;15.00;9.13;;;;;;;;;;4927165;29;20031;-61
2021/09/28 16:37:07;;;;;;;15.77;9.38;;;;;;;;;;4915176;29;20020;-61
2021/09/28 16:39:34;;;;;;;15.93;8.77;;;;;;;;;;4915371;29;20040;-62
2021/09/28 16:42:00;;;;;;;13.68;9.20;;;;;;;;;;4915290;29;20385;-60
2021/09/28 16:44:26;;;;;;;13.38;9.07;;;;;;;;;;4912534;29;20017;-66
2021/09/28 16:46:53;;;;;;;19.23;11.23;;;;;;;;;;4915854;29;20440;-64
2021/09/28 16:49:20;;;;;;;16.02;10.50;;;;;;;;;;4916419;29;20476;-65
2021/09/28 16:51:46;;;;;;;15.65;10.60;;;;;;;;;;4911284;29;20036;-68
2021/09/28 16:54:13;;;;;;;18.65;10.43;;;;;;;;;;4913155;29;20099;-70
2021/09/28 16:56:39;;;;;;;18.02;10.43;;;;;;;;;;4909241;29;20480;-72
2021/09/28 16:59:05;;;;;;;18.67;11.70;;;;;;;;;;4914848;29;20047;-71
2021/09/28 17:01:33;;;;;;;17.45;11.35;;;;;;;;;;4914272;29;20476;-59
2021/09/28 17:03:59;;;;;;;17.27;11.50;;;;;;;;;;4913761;29;20062;-60
2021/09/28 17:06:25;;;;;;;21.15;12.68;;;;;;;;;;4914504;29;20143;-61
2021/09/28 17:08:51;;;;;;;18.88;12.38;;;;;;;;;;4897957;29;20411;-59
2021/09/28 17:11:17;;;;;;;17.65;11.05;;;;;;;;;;4915561;29;20039;-61
2021/09/28 17:13:44;;;;;;;17.60;11.85;;;;;;;;;;4910162;29;20020;-59
2021/09/28 17:16:10;;;;;;;16.27;11.38;;;;;;;;;;4914637;29;20036;-60
2021/09/28 17:18:37;;;;;;;18.45;12.02;;;;;;;;;;4912155;29;20082;-59
2021/09/28 17:21:04;;;;;;;17.70;11.35;;;;;;;;;;4912898;29;20178;-59
2021/09/28 17:23:30;;;;;;;18.88;12.05;;;;;;;;;;4914403;29;20025;-60
2021/09/28 17:25:56;;;;;;;18.70;11.85;;;;;;;;;;4911416;29;20164;-62
2021/09/28 17:28:23;;;;;;;17.50;12.23;;;;;;;;;;4913902;29;20095;-62
2021/09/28 17:30:49;;;;;;;17.77;12.23;;;;;;;;;;4913785;29;20039;-59
2021/09/28 17:33:15;;;;;;;16.52;12.00;;;;;;;;;;4914425;29;20054;-62
2021/09/28 17:35:41;;;;;;;19.02;11.15;;;;;;;;;;4914791;29;20043;-61
2021/09/28 17:38:08;;;;;;;16.92;11.77;;;;;;;;;;4914640;29;20036;-62
2021/09/28 17:40:34;;;;;;;17.52;11.15;;;;;;;;;;4914178;29;20039;-69
2021/09/28 17:43:01;;;;;;;17.63;11.55;;;;;;;;;;4915158;29;20036;-61
2021/09/28 17:45:30;;;;;;;15.63;10.90;;;;;;;;;;4894189;29;20502;-67
2021/09/28 17:47:57;;;;;;;18.02;11.15;;;;;;;;;;4907839;29;20051;-60
2021/09/28 17:50:24;;;;;;;18.77;11.80;;;;;;;;;;4911343;29;20028;-64
2021/09/28 17:52:53;;;;;;;18.90;11.23;;;;;;;;;;4912323;29;20024;-62
2021/09/28 17:55:43;;;;;;;16.95;11.70;;;;;;;;;;4913048;29;20419;-58
2021/09/28 17:58:08;;;;;;;20.35;12.23;;;;;;;;;;4912342;29;20495;-62
2021/09/28 18:00:34;;;;;;;21.27;11.93;;;;;;;;;;4912215;29;20079;-64
2021/09/28 18:03:03;;;;;;;16.60;10.80;;;;;;;;;;4912513;29;20448;-60
2021/09/28 18:05:30;;;;;;;16.92;11.27;;;;;;;;;;4920559;23;20049;-66
2021/09/28 18:07:56;;;;;;;16.58;11.10;;;;;;;;;;4921584;29;20039;-65
2021/09/28 18:10:22;;;;;;;17.67;11.38;;;;;;;;;;4932244;29;20035;-62
2021/09/28 18:12:48;;;;;;;16.63;11.05;;;;;;;;;;4923031;29;20044;-63
2021/09/28 18:15:14;;;;;;;18.45;11.15;;;;;;;;;;4930844;29;20030;-62
2021/09/28 18:17:41;;;;;;;16.23;10.88;;;;;;;;;;4931501;29;20099;-64
2021/09/28 18:20:09;;;;;;;17.75;10.77;;;;;;;;;;4932242;29;20531;-63
2021/09/28 18:22:35;;;;;;;16.25;10.65;;;;;;;;;;4920447;29;20055;-64
2021/09/28 18:25:01;;;;;;;16.92;11.13;;;;;;;;;;4923786;29;20036;-72
2021/09/28 18:27:32;;;;;;;16.17;10.40;;;;;;;;;;4928119;29;20027;-65
2021/09/28 18:29:58;;;;;;;17.02;11.07;;;;;;;;;;4930899;29;20019;-63
2021/09/28 18:32:27;;;;;;;15.38;10.65;;;;;;;;;;4932545;29;20034;-65
2021/09/28 18:34:53;;;;;;;15.90;9.98;;;;;;;;;;4929575;29;20163;-63
2021/09/28 18:37:29;;;;;;;15.40;10.00;;;;;;;;;;4931077;29;20510;-63
2021/09/28 18:40:04;;;;;;;15.75;10.57;;;;;;;;;;4928706;29;20027;-63
2021/09/28 18:42:36;;;;;;;15.35;10.50;;;;;;;;;;4932351;29;20047;-64
2021/09/28 18:45:05;;;;;;;15.60;10.95;;;;;;;;;;4921222;29;20032;-64
2021/09/28 18:47:31;;;;;;;19.40;12.23;;;;;;;;;;4921292;29;20027;-64
2021/09/28 18:49:57;;;;;;;20.20;12.48;;;;;;;;;;4928289;29;20484;-63
2021/09/28 18:52:24;;;;;;;18.83;12.23;;;;;;;;;;4921695;29;20039;-64
2021/09/28 18:54:54;;;;;;;21.63;12.95;;;;;;;;;;4930256;29;20769;-65
2021/09/28 18:57:22;;;;;;;17.90;12.25;;;;;;;;;;4926430;29;20119;-62
2021/09/28 18:59:50;;;;;;;19.17;12.20;;;;;;;;;;4928816;29;20023;-62
2021/09/28 19:02:23;;;;;;;18.00;12.55;;;;;;;;;;4924178;29;20040;-63
2021/09/28 19:07:16;;;;;;;32.63;21.30;;;;;;;;;;4906289;29;20059;-63
2021/09/28 19:09:43;;;;;;;22.35;14.30;;;;;;;;;;4910145;29;20032;-69